sensor_id;sensor_type;location;lat;lon;timestamp;P1;durP1;ratioP1;P2;durP2;ratioP2
55186;SDS011;55457;52.002;5.464;2022-09-03T00:02:05;4.13;;;2.63;;
55186;SDS011;55457;52.002;5.464;2022-09-03T00:04:36;4.55;;;2.35;;
55186;SDS011;55457;52.002;5.464;2022-09-03T00:07:11;2.55;;;1.95;;
55186;SDS011;55457;52.002;5.464;2022-09-03T00:09:48;4.25;;;2.60;;
55186;SDS011;55457;52.002;5.464;2022-09-03T00:12:24;8.50;;;2.28;;
55186;SDS011;55457;52.002;5.464;2022-09-03T00:15:12;8.18;;;2.67;;
55186;SDS011;55457;52.002;5.464;2022-09-03T00:18:03;2.03;;;1.80;;
55186;SDS011;55457;52.002;5.464;2022-09-03T00:20:40;7.65;;;2.50;;
55186;SDS011;55457;52.002;5.464;2022-09-03T00:23:10;7.85;;;2.25;;
55186;SDS011;55457;52.002;5.464;2022-09-03T00:25:53;4.75;;;2.50;;
55186;SDS011;55457;52.002;5.464;2022-09-03T00:28:25;5.55;;;1.75;;
55186;SDS011;55457;52.002;5.464;2022-09-03T00:31:05;3.35;;;2.13;;
55186;SDS011;55457;52.002;5.464;2022-09-03T00:33:36;3.03;;;1.92;;
55186;SDS011;55457;52.002;5.464;2022-09-03T00:38:36;3.75;;;2.30;;
55186;SDS011;55457;52.002;5.464;2022-09-03T00:41:07;9.82;;;3.13;;
55186;SDS011;55457;52.002;5.464;2022-09-03T00:46:59;2.33;;;1.75;;
55186;SDS011;55457;52.002;5.464;2022-09-03T00:49:41;8.50;;;2.10;;
55186;SDS011;55457;52.002;5.464;2022-09-03T00:55:12;2.50;;;2.10;;
55186;SDS011;55457;52.002;5.464;2022-09-03T01:00:40;2.33;;;1.70;;
55186;SDS011;55457;52.002;5.464;2022-09-03T01:03:11;7.32;;;3.05;;
55186;SDS011;55457;52.002;5.464;2022-09-03T01:32:21;3.60;;;1.88;;
55186;SDS011;55457;52.002;5.464;2022-09-03T01:34:59;4.93;;;2.03;;
55186;SDS011;55457;52.002;5.464;2022-09-03T01:45:44;4.10;;;2.42;;
55186;SDS011;55457;52.002;5.464;2022-09-03T01:48:33;4.88;;;1.95;;
55186;SDS011;55457;52.002;5.464;2022-09-03T01:51:23;6.90;;;2.22;;
55186;SDS011;55457;52.002;5.464;2022-09-03T01:53:59;4.10;;;2.10;;
55186;SDS011;55457;52.002;5.464;2022-09-03T01:59:41;7.20;;;2.03;;
55186;SDS011;55457;52.002;5.464;2022-09-03T02:02:14;4.97;;;1.90;;
55186;SDS011;55457;52.002;5.464;2022-09-03T02:07:35;2.47;;;1.95;;
55186;SDS011;55457;52.002;5.464;2022-09-03T02:10:04;3.95;;;2.00;;
55186;SDS011;55457;52.002;5.464;2022-09-03T02:12:32;3.08;;;1.70;;
55186;SDS011;55457;52.002;5.464;2022-09-03T02:15:00;4.00;;;2.10;;
55186;SDS011;55457;52.002;5.464;2022-09-03T02:17:30;4.22;;;1.95;;
55186;SDS011;55457;52.002;5.464;2022-09-03T02:19:57;3.33;;;1.50;;
55186;SDS011;55457;52.002;5.464;2022-09-03T02:22:22;5.88;;;2.17;;
55186;SDS011;55457;52.002;5.464;2022-09-03T02:24:48;3.88;;;1.95;;
55186;SDS011;55457;52.002;5.464;2022-09-03T02:27:13;3.85;;;1.58;;
55186;SDS011;55457;52.002;5.464;2022-09-03T02:29:39;5.20;;;2.30;;
55186;SDS011;55457;52.002;5.464;2022-09-03T02:32:05;3.55;;;1.95;;
55186;SDS011;55457;52.002;5.464;2022-09-03T02:34:30;2.30;;;1.95;;
55186;SDS011;55457;52.002;5.464;2022-09-03T02:36:55;4.22;;;1.98;;
55186;SDS011;55457;52.002;5.464;2022-09-03T02:39:21;2.78;;;1.50;;
55186;SDS011;55457;52.002;5.464;2022-09-03T02:41:49;3.95;;;1.73;;
55186;SDS011;55457;52.002;5.464;2022-09-03T02:44:25;5.35;;;1.98;;
55186;SDS011;55457;52.002;5.464;2022-09-03T02:46:59;2.13;;;1.80;;
55186;SDS011;55457;52.002;5.464;2022-09-03T02:49:26;4.63;;;1.83;;
55186;SDS011;55457;52.002;5.464;2022-09-03T02:51:56;2.75;;;1.83;;
55186;SDS011;55457;52.002;5.464;2022-09-03T02:54:29;3.88;;;2.53;;
55186;SDS011;55457;52.002;5.464;2022-09-03T02:56:55;2.03;;;1.65;;
55186;SDS011;55457;52.002;5.464;2022-09-03T02:59:20;2.05;;;1.50;;
55186;SDS011;55457;52.002;5.464;2022-09-03T03:01:46;2.83;;;1.90;;
55186;SDS011;55457;52.002;5.464;2022-09-03T03:04:12;2.83;;;1.83;;
55186;SDS011;55457;52.002;5.464;2022-09-03T03:06:37;4.68;;;1.83;;
55186;SDS011;55457;52.002;5.464;2022-09-03T03:09:03;2.67;;;1.63;;
55186;SDS011;55457;52.002;5.464;2022-09-03T03:11:29;2.25;;;1.73;;
55186;SDS011;55457;52.002;5.464;2022-09-03T03:13:55;2.83;;;1.70;;
55186;SDS011;55457;52.002;5.464;2022-09-03T03:16:21;2.30;;;1.70;;
55186;SDS011;55457;52.002;5.464;2022-09-03T03:18:46;3.83;;;1.20;;
55186;SDS011;55457;52.002;5.464;2022-09-03T03:21:15;3.28;;;1.58;;
55186;SDS011;55457;52.002;5.464;2022-09-03T03:23:42;2.03;;;1.83;;
55186;SDS011;55457;52.002;5.464;2022-09-03T03:26:09;1.83;;;1.33;;
55186;SDS011;55457;52.002;5.464;2022-09-03T03:28:36;5.03;;;1.92;;
55186;SDS011;55457;52.002;5.464;2022-09-03T03:31:08;3.95;;;1.40;;
55186;SDS011;55457;52.002;5.464;2022-09-03T03:33:35;2.78;;;1.38;;
55186;SDS011;55457;52.002;5.464;2022-09-03T03:36:03;2.22;;;1.60;;
55186;SDS011;55457;52.002;5.464;2022-09-03T03:38:30;8.27;;;1.90;;
55186;SDS011;55457;52.002;5.464;2022-09-03T03:40:56;3.45;;;1.73;;
55186;SDS011;55457;52.002;5.464;2022-09-03T03:43:21;3.13;;;2.38;;
55186;SDS011;55457;52.002;5.464;2022-09-03T03:45:56;4.05;;;1.90;;
55186;SDS011;55457;52.002;5.464;2022-09-03T03:48:22;3.55;;;1.73;;
55186;SDS011;55457;52.002;5.464;2022-09-03T03:50:48;3.03;;;1.70;;
55186;SDS011;55457;52.002;5.464;2022-09-03T03:53:13;2.50;;;1.80;;
55186;SDS011;55457;52.002;5.464;2022-09-03T03:55:39;2.60;;;1.42;;
55186;SDS011;55457;52.002;5.464;2022-09-03T03:58:04;2.40;;;1.60;;
55186;SDS011;55457;52.002;5.464;2022-09-03T04:00:29;2.83;;;1.73;;
55186;SDS011;55457;52.002;5.464;2022-09-03T04:02:55;2.20;;;1.40;;
55186;SDS011;55457;52.002;5.464;2022-09-03T04:05:20;2.38;;;1.45;;
55186;SDS011;55457;52.002;5.464;2022-09-03T04:07:45;3.90;;;1.75;;
55186;SDS011;55457;52.002;5.464;2022-09-03T04:10:11;1.92;;;1.40;;
55186;SDS011;55457;52.002;5.464;2022-09-03T04:12:37;4.53;;;1.65;;
55186;SDS011;55457;52.002;5.464;2022-09-03T04:15:02;3.35;;;1.73;;
55186;SDS011;55457;52.002;5.464;2022-09-03T04:17:28;4.43;;;1.58;;
55186;SDS011;55457;52.002;5.464;2022-09-03T04:19:53;1.63;;;1.20;;
55186;SDS011;55457;52.002;5.464;2022-09-03T04:22:18;3.10;;;1.83;;
55186;SDS011;55457;52.002;5.464;2022-09-03T04:24:44;2.08;;;1.60;;
55186;SDS011;55457;52.002;5.464;2022-09-03T04:27:09;2.17;;;1.70;;
55186;SDS011;55457;52.002;5.464;2022-09-03T04:29:35;2.72;;;1.75;;
55186;SDS011;55457;52.002;5.464;2022-09-03T04:32:00;2.72;;;1.58;;
55186;SDS011;55457;52.002;5.464;2022-09-03T04:34:44;2.35;;;1.42;;
55186;SDS011;55457;52.002;5.464;2022-09-03T04:37:09;2.40;;;1.95;;
55186;SDS011;55457;52.002;5.464;2022-09-03T04:39:35;2.97;;;1.55;;
55186;SDS011;55457;52.002;5.464;2022-09-03T04:42:01;1.80;;;1.17;;
55186;SDS011;55457;52.002;5.464;2022-09-03T04:44:26;4.63;;;1.88;;
55186;SDS011;55457;52.002;5.464;2022-09-03T04:46:52;2.22;;;1.65;;
55186;SDS011;55457;52.002;5.464;2022-09-03T04:49:17;5.65;;;1.70;;
55186;SDS011;55457;52.002;5.464;2022-09-03T04:51:43;2.47;;;1.60;;
55186;SDS011;55457;52.002;5.464;2022-09-03T04:54:09;4.05;;;1.60;;
55186;SDS011;55457;52.002;5.464;2022-09-03T04:56:35;2.60;;;1.75;;
55186;SDS011;55457;52.002;5.464;2022-09-03T04:59:06;2.55;;;1.63;;
55186;SDS011;55457;52.002;5.464;2022-09-03T05:01:33;4.97;;;1.80;;
55186;SDS011;55457;52.002;5.464;2022-09-03T05:04:00;3.38;;;1.35;;
55186;SDS011;55457;52.002;5.464;2022-09-03T05:06:27;4.22;;;2.63;;
55186;SDS011;55457;52.002;5.464;2022-09-03T05:08:54;1.70;;;1.50;;
55186;SDS011;55457;52.002;5.464;2022-09-03T05:11:20;3.78;;;2.03;;
55186;SDS011;55457;52.002;5.464;2022-09-03T05:13:46;2.40;;;1.50;;
55186;SDS011;55457;52.002;5.464;2022-09-03T05:16:13;2.65;;;1.60;;
55186;SDS011;55457;52.002;5.464;2022-09-03T05:18:39;6.43;;;1.60;;
55186;SDS011;55457;52.002;5.464;2022-09-03T05:21:10;3.08;;;1.80;;
55186;SDS011;55457;52.002;5.464;2022-09-03T05:23:40;3.30;;;1.30;;
55186;SDS011;55457;52.002;5.464;2022-09-03T05:26:12;1.83;;;1.50;;
55186;SDS011;55457;52.002;5.464;2022-09-03T05:28:40;1.92;;;1.52;;
55186;SDS011;55457;52.002;5.464;2022-09-03T05:31:10;4.35;;;1.75;;
55186;SDS011;55457;52.002;5.464;2022-09-03T05:33:41;2.65;;;1.58;;
55186;SDS011;55457;52.002;5.464;2022-09-03T05:36:09;1.52;;;1.20;;
55186;SDS011;55457;52.002;5.464;2022-09-03T05:38:42;1.63;;;1.40;;
55186;SDS011;55457;52.002;5.464;2022-09-03T05:41:08;3.30;;;1.23;;
55186;SDS011;55457;52.002;5.464;2022-09-03T05:43:35;2.13;;;1.50;;
55186;SDS011;55457;52.002;5.464;2022-09-03T05:46:05;2.72;;;1.60;;
55186;SDS011;55457;52.002;5.464;2022-09-03T05:48:35;3.47;;;1.63;;
55186;SDS011;55457;52.002;5.464;2022-09-03T05:51:03;2.47;;;1.30;;
55186;SDS011;55457;52.002;5.464;2022-09-03T05:53:38;1.65;;;1.48;;
55186;SDS011;55457;52.002;5.464;2022-09-03T05:56:08;4.43;;;1.55;;
55186;SDS011;55457;52.002;5.464;2022-09-03T05:58:36;3.37;;;1.87;;
55186;SDS011;55457;52.002;5.464;2022-09-03T06:01:16;2.47;;;1.83;;
55186;SDS011;55457;52.002;5.464;2022-09-03T06:03:42;4.15;;;1.65;;
55186;SDS011;55457;52.002;5.464;2022-09-03T06:06:09;3.42;;;1.55;;
55186;SDS011;55457;52.002;5.464;2022-09-03T06:08:35;2.97;;;1.42;;
55186;SDS011;55457;52.002;5.464;2022-09-03T06:11:04;7.93;;;1.63;;
55186;SDS011;55457;52.002;5.464;2022-09-03T06:13:31;6.70;;;2.00;;
55186;SDS011;55457;52.002;5.464;2022-09-03T06:15:57;5.18;;;1.60;;
55186;SDS011;55457;52.002;5.464;2022-09-03T06:18:25;5.00;;;1.27;;
55186;SDS011;55457;52.002;5.464;2022-09-03T06:20:58;6.10;;;1.50;;
55186;SDS011;55457;52.002;5.464;2022-09-03T06:23:25;6.45;;;2.10;;
55186;SDS011;55457;52.002;5.464;2022-09-03T06:26:06;4.13;;;1.40;;
55186;SDS011;55457;52.002;5.464;2022-09-03T06:28:36;5.25;;;1.45;;
55186;SDS011;55457;52.002;5.464;2022-09-03T06:31:05;5.03;;;1.67;;
55186;SDS011;55457;52.002;5.464;2022-09-03T06:33:33;4.13;;;1.52;;
55186;SDS011;55457;52.002;5.464;2022-09-03T06:36:01;8.52;;;1.73;;
55186;SDS011;55457;52.002;5.464;2022-09-03T06:38:29;1.63;;;1.50;;
55186;SDS011;55457;52.002;5.464;2022-09-03T06:41:02;2.83;;;1.20;;
55186;SDS011;55457;52.002;5.464;2022-09-03T06:43:30;5.65;;;1.63;;
55186;SDS011;55457;52.002;5.464;2022-09-03T06:46:00;2.22;;;1.40;;
55186;SDS011;55457;52.002;5.464;2022-09-03T06:48:29;3.65;;;1.23;;
55186;SDS011;55457;52.002;5.464;2022-09-03T06:50:59;3.03;;;1.38;;
55186;SDS011;55457;52.002;5.464;2022-09-03T06:53:27;4.93;;;1.67;;
55186;SDS011;55457;52.002;5.464;2022-09-03T06:55:55;2.00;;;1.38;;
55186;SDS011;55457;52.002;5.464;2022-09-03T06:58:23;2.83;;;1.33;;
55186;SDS011;55457;52.002;5.464;2022-09-03T07:00:49;2.40;;;1.45;;
55186;SDS011;55457;52.002;5.464;2022-09-03T07:03:18;3.28;;;1.45;;
55186;SDS011;55457;52.002;5.464;2022-09-03T07:05:45;3.00;;;1.35;;
55186;SDS011;55457;52.002;5.464;2022-09-03T07:08:11;2.10;;;1.05;;
55186;SDS011;55457;52.002;5.464;2022-09-03T07:10:37;0.80;;;0.80;;
55186;SDS011;55457;52.002;5.464;2022-09-03T07:13:02;1.55;;;1.00;;
55186;SDS011;55457;52.002;5.464;2022-09-03T07:15:30;4.93;;;1.30;;
55186;SDS011;55457;52.002;5.464;2022-09-03T07:17:57;2.63;;;1.30;;
55186;SDS011;55457;52.002;5.464;2022-09-03T07:20:22;1.10;;;0.93;;
55186;SDS011;55457;52.002;5.464;2022-09-03T07:22:48;4.88;;;1.20;;
55186;SDS011;55457;52.002;5.464;2022-09-03T07:25:13;2.38;;;1.50;;
55186;SDS011;55457;52.002;5.464;2022-09-03T07:27:38;1.42;;;0.93;;
55186;SDS011;55457;52.002;5.464;2022-09-03T07:30:04;3.13;;;1.02;;
55186;SDS011;55457;52.002;5.464;2022-09-03T07:32:33;2.45;;;0.63;;
55186;SDS011;55457;52.002;5.464;2022-09-03T07:35:01;2.15;;;0.80;;
55186;SDS011;55457;52.002;5.464;2022-09-03T07:37:27;2.88;;;0.95;;
55186;SDS011;55457;52.002;5.464;2022-09-03T07:39:52;2.42;;;1.10;;
55186;SDS011;55457;52.002;5.464;2022-09-03T07:42:18;3.80;;;1.40;;
55186;SDS011;55457;52.002;5.464;2022-09-03T07:44:44;2.85;;;1.10;;
55186;SDS011;55457;52.002;5.464;2022-09-03T07:47:10;2.95;;;1.08;;
55186;SDS011;55457;52.002;5.464;2022-09-03T07:49:35;3.05;;;1.52;;
55186;SDS011;55457;52.002;5.464;2022-09-03T07:52:00;6.13;;;1.25;;
55186;SDS011;55457;52.002;5.464;2022-09-03T07:54:26;2.67;;;0.88;;
55186;SDS011;55457;52.002;5.464;2022-09-03T07:56:52;1.65;;;0.93;;
55186;SDS011;55457;52.002;5.464;2022-09-03T07:59:17;4.20;;;1.13;;
55186;SDS011;55457;52.002;5.464;2022-09-03T08:01:44;3.10;;;1.20;;
55186;SDS011;55457;52.002;5.464;2022-09-03T08:04:09;3.80;;;0.90;;
55186;SDS011;55457;52.002;5.464;2022-09-03T08:06:35;1.33;;;0.75;;
55186;SDS011;55457;52.002;5.464;2022-09-03T08:09:04;1.75;;;1.15;;
55186;SDS011;55457;52.002;5.464;2022-09-03T08:11:32;1.98;;;0.90;;
55186;SDS011;55457;52.002;5.464;2022-09-03T08:14:01;1.65;;;0.95;;
55186;SDS011;55457;52.002;5.464;2022-09-03T08:16:33;2.88;;;1.15;;
55186;SDS011;55457;52.002;5.464;2022-09-03T08:19:00;2.65;;;1.08;;
55186;SDS011;55457;52.002;5.464;2022-09-03T08:21:26;2.35;;;1.00;;
55186;SDS011;55457;52.002;5.464;2022-09-03T08:23:52;1.48;;;0.93;;
55186;SDS011;55457;52.002;5.464;2022-09-03T08:26:21;1.83;;;0.88;;
55186;SDS011;55457;52.002;5.464;2022-09-03T08:28:46;3.15;;;1.17;;
55186;SDS011;55457;52.002;5.464;2022-09-03T08:31:17;2.47;;;0.88;;
55186;SDS011;55457;52.002;5.464;2022-09-03T08:33:53;1.87;;;0.90;;
55186;SDS011;55457;52.002;5.464;2022-09-03T08:36:27;2.05;;;0.98;;
55186;SDS011;55457;52.002;5.464;2022-09-03T08:38:54;3.47;;;1.02;;
55186;SDS011;55457;52.002;5.464;2022-09-03T08:50:02;2.78;;;1.30;;
55186;SDS011;55457;52.002;5.464;2022-09-03T08:57:48;4.30;;;1.00;;
55186;SDS011;55457;52.002;5.464;2022-09-03T09:00:17;3.78;;;1.63;;
55186;SDS011;55457;52.002;5.464;2022-09-03T09:02:59;1.88;;;1.02;;
55186;SDS011;55457;52.002;5.464;2022-09-03T09:08:14;2.80;;;1.30;;
55186;SDS011;55457;52.002;5.464;2022-09-03T09:10:48;1.77;;;1.20;;
55186;SDS011;55457;52.002;5.464;2022-09-03T09:13:27;2.92;;;0.90;;
55186;SDS011;55457;52.002;5.464;2022-09-03T09:21:52;2.65;;;1.17;;
55186;SDS011;55457;52.002;5.464;2022-09-03T09:24:24;1.87;;;0.97;;
55186;SDS011;55457;52.002;5.464;2022-09-03T09:26:57;1.73;;;0.70;;
55186;SDS011;55457;52.002;5.464;2022-09-03T09:31:55;3.28;;;1.00;;
55186;SDS011;55457;52.002;5.464;2022-09-03T09:34:21;1.60;;;1.00;;
55186;SDS011;55457;52.002;5.464;2022-09-03T09:36:51;3.25;;;1.40;;
55186;SDS011;55457;52.002;5.464;2022-09-03T09:39:18;1.20;;;0.90;;
55186;SDS011;55457;52.002;5.464;2022-09-03T09:41:55;1.90;;;0.88;;
55186;SDS011;55457;52.002;5.464;2022-09-03T09:44:24;2.13;;;1.08;;
55186;SDS011;55457;52.002;5.464;2022-09-03T09:46:50;3.72;;;1.00;;
55186;SDS011;55457;52.002;5.464;2022-09-03T09:49:29;5.05;;;0.90;;
55186;SDS011;55457;52.002;5.464;2022-09-03T09:52:00;3.50;;;1.02;;
55186;SDS011;55457;52.002;5.464;2022-09-03T09:54:33;4.18;;;1.02;;
55186;SDS011;55457;52.002;5.464;2022-09-03T09:57:02;2.90;;;0.90;;
55186;SDS011;55457;52.002;5.464;2022-09-03T09:59:29;1.93;;;1.00;;
55186;SDS011;55457;52.002;5.464;2022-09-03T10:02:07;1.35;;;0.80;;
55186;SDS011;55457;52.002;5.464;2022-09-03T10:04:35;2.95;;;1.10;;
55186;SDS011;55457;52.002;5.464;2022-09-03T10:07:04;6.15;;;0.93;;
55186;SDS011;55457;52.002;5.464;2022-09-03T10:09:44;2.47;;;1.00;;
55186;SDS011;55457;52.002;5.464;2022-09-03T10:14:50;6.25;;;1.05;;
55186;SDS011;55457;52.002;5.464;2022-09-03T10:23:34;4.63;;;1.00;;
55186;SDS011;55457;52.002;5.464;2022-09-03T10:28:31;3.47;;;1.05;;
55186;SDS011;55457;52.002;5.464;2022-09-03T10:31:11;4.35;;;1.30;;
55186;SDS011;55457;52.002;5.464;2022-09-03T10:45:15;3.45;;;1.30;;
55186;SDS011;55457;52.002;5.464;2022-09-03T10:50:26;11.48;;;2.15;;
55186;SDS011;55457;52.002;5.464;2022-09-03T10:56:04;3.80;;;1.00;;
55186;SDS011;55457;52.002;5.464;2022-09-03T10:58:42;4.88;;;0.90;;
55186;SDS011;55457;52.002;5.464;2022-09-03T11:04:21;1.35;;;0.80;;
55186;SDS011;55457;52.002;5.464;2022-09-03T11:07:02;2.75;;;1.30;;
55186;SDS011;55457;52.002;5.464;2022-09-03T11:12:08;1.40;;;0.80;;
55186;SDS011;55457;52.002;5.464;2022-09-03T11:14:43;3.67;;;1.08;;
55186;SDS011;55457;52.002;5.464;2022-09-03T11:17:46;2.33;;;0.90;;
55186;SDS011;55457;52.002;5.464;2022-09-03T11:22:41;3.83;;;0.95;;
55186;SDS011;55457;52.002;5.464;2022-09-03T11:25:09;2.58;;;0.80;;
55186;SDS011;55457;52.002;5.464;2022-09-03T11:32:43;2.58;;;0.90;;
55186;SDS011;55457;52.002;5.464;2022-09-03T11:38:05;2.30;;;1.20;;
55186;SDS011;55457;52.002;5.464;2022-09-03T11:45:48;2.00;;;0.87;;
55186;SDS011;55457;52.002;5.464;2022-09-03T11:51:29;1.02;;;0.70;;
55186;SDS011;55457;52.002;5.464;2022-09-03T11:53:58;1.48;;;0.82;;
55186;SDS011;55457;52.002;5.464;2022-09-03T11:56:26;2.53;;;0.90;;
55186;SDS011;55457;52.002;5.464;2022-09-03T12:01:26;1.35;;;0.52;;
55186;SDS011;55457;52.002;5.464;2022-09-03T12:03:56;1.55;;;0.70;;
55186;SDS011;55457;52.002;5.464;2022-09-03T12:13:13;1.25;;;0.73;;
55186;SDS011;55457;52.002;5.464;2022-09-03T12:18:32;1.17;;;0.75;;
55186;SDS011;55457;52.002;5.464;2022-09-03T12:26:04;2.20;;;1.10;;
55186;SDS011;55457;52.002;5.464;2022-09-03T12:28:37;1.80;;;0.85;;
55186;SDS011;55457;52.002;5.464;2022-09-03T12:31:14;2.42;;;1.00;;
55186;SDS011;55457;52.002;5.464;2022-09-03T12:36:15;3.30;;;0.98;;
55186;SDS011;55457;52.002;5.464;2022-09-03T12:38:41;4.22;;;0.88;;
55186;SDS011;55457;52.002;5.464;2022-09-03T12:41:18;1.27;;;0.80;;
55186;SDS011;55457;52.002;5.464;2022-09-03T12:43:51;2.17;;;0.90;;
55186;SDS011;55457;52.002;5.464;2022-09-03T12:46:18;1.05;;;0.73;;
55186;SDS011;55457;52.002;5.464;2022-09-03T12:49:05;1.60;;;0.90;;
55186;SDS011;55457;52.002;5.464;2022-09-03T12:51:38;2.00;;;1.10;;
55186;SDS011;55457;52.002;5.464;2022-09-03T12:54:06;2.47;;;0.98;;
55186;SDS011;55457;52.002;5.464;2022-09-03T12:56:38;2.67;;;1.00;;
55186;SDS011;55457;52.002;5.464;2022-09-03T12:59:06;1.33;;;0.88;;
55186;SDS011;55457;52.002;5.464;2022-09-03T13:01:46;1.13;;;0.80;;
55186;SDS011;55457;52.002;5.464;2022-09-03T13:04:18;1.48;;;1.00;;
55186;SDS011;55457;52.002;5.464;2022-09-03T13:06:50;1.92;;;1.05;;
55186;SDS011;55457;52.002;5.464;2022-09-03T13:09:21;2.28;;;1.10;;
55186;SDS011;55457;52.002;5.464;2022-09-03T13:11:48;1.92;;;0.90;;
55186;SDS011;55457;52.002;5.464;2022-09-03T13:14:16;0.98;;;0.70;;
55186;SDS011;55457;52.002;5.464;2022-09-03T13:21:58;1.48;;;0.70;;
55186;SDS011;55457;52.002;5.464;2022-09-03T13:32:41;1.20;;;0.90;;
55186;SDS011;55457;52.002;5.464;2022-09-03T13:38:28;1.98;;;1.05;;
55186;SDS011;55457;52.002;5.464;2022-09-03T13:41:14;2.35;;;0.95;;
55186;SDS011;55457;52.002;5.464;2022-09-03T13:46:23;2.22;;;0.90;;
55186;SDS011;55457;52.002;5.464;2022-09-03T13:57:52;1.17;;;1.00;;
55186;SDS011;55457;52.002;5.464;2022-09-03T14:08:33;2.50;;;1.30;;
55186;SDS011;55457;52.002;5.464;2022-09-03T14:13:55;1.73;;;1.03;;
55186;SDS011;55457;52.002;5.464;2022-09-03T14:16:37;3.08;;;1.30;;
55186;SDS011;55457;52.002;5.464;2022-09-03T14:19:11;1.52;;;1.20;;
55186;SDS011;55457;52.002;5.464;2022-09-03T14:24:26;1.25;;;1.00;;
55186;SDS011;55457;52.002;5.464;2022-09-03T14:27:03;1.90;;;1.27;;
55186;SDS011;55457;52.002;5.464;2022-09-03T14:29:33;1.25;;;1.13;;
55186;SDS011;55457;52.002;5.464;2022-09-03T14:34:59;1.55;;;1.10;;
55186;SDS011;55457;52.002;5.464;2022-09-03T14:42:50;2.08;;;1.55;;
55186;SDS011;55457;52.002;5.464;2022-09-03T14:45:26;6.22;;;1.33;;
55186;SDS011;55457;52.002;5.464;2022-09-03T14:48:10;2.15;;;1.92;;
55186;SDS011;55457;52.002;5.464;2022-09-03T14:50:53;3.47;;;2.60;;
55186;SDS011;55457;52.002;5.464;2022-09-03T14:59:16;3.22;;;1.38;;
55186;SDS011;55457;52.002;5.464;2022-09-03T15:12:42;1.85;;;1.40;;
55186;SDS011;55457;52.002;5.464;2022-09-03T15:15:23;1.83;;;1.27;;
55186;SDS011;55457;52.002;5.464;2022-09-03T15:18:41;2.72;;;1.42;;
55186;SDS011;55457;52.002;5.464;2022-09-03T15:20:49;1.25;;;1.08;;
55186;SDS011;55457;52.002;5.464;2022-09-03T15:37:38;2.88;;;1.83;;
55186;SDS011;55457;52.002;5.464;2022-09-03T15:42:46;2.05;;;1.30;;
55186;SDS011;55457;52.002;5.464;2022-09-03T15:48:16;1.70;;;1.13;;
55186;SDS011;55457;52.002;5.464;2022-09-03T15:51:09;2.80;;;1.40;;
55186;SDS011;55457;52.002;5.464;2022-09-03T15:57:01;2.33;;;1.40;;
55186;SDS011;55457;52.002;5.464;2022-09-03T15:59:42;2.20;;;1.77;;
55186;SDS011;55457;52.002;5.464;2022-09-03T16:02:17;2.30;;;1.63;;
55186;SDS011;55457;52.002;5.464;2022-09-03T16:16:30;3.38;;;1.83;;
55186;SDS011;55457;52.002;5.464;2022-09-03T16:21:57;1.77;;;1.63;;
55186;SDS011;55457;52.002;5.464;2022-09-03T16:24:39;1.58;;;1.17;;
55186;SDS011;55457;52.002;5.464;2022-09-03T16:29:59;5.07;;;1.90;;
55186;SDS011;55457;52.002;5.464;2022-09-03T16:32:32;1.92;;;1.48;;
55186;SDS011;55457;52.002;5.464;2022-09-03T16:35:18;3.22;;;1.40;;
55186;SDS011;55457;52.002;5.464;2022-09-03T16:37:56;5.70;;;1.85;;
55186;SDS011;55457;52.002;5.464;2022-09-03T16:43:16;2.17;;;1.98;;
55186;SDS011;55457;52.002;5.464;2022-09-03T16:45:52;2.92;;;1.80;;
55186;SDS011;55457;52.002;5.464;2022-09-03T16:54:36;1.77;;;1.58;;
55186;SDS011;55457;52.002;5.464;2022-09-03T16:57:53;1.40;;;1.30;;
55186;SDS011;55457;52.002;5.464;2022-09-03T17:00:21;1.85;;;1.73;;
55186;SDS011;55457;52.002;5.464;2022-09-03T17:11:41;3.03;;;2.08;;
55186;SDS011;55457;52.002;5.464;2022-09-03T17:25:35;2.05;;;1.70;;
55186;SDS011;55457;52.002;5.464;2022-09-03T17:36:14;2.37;;;1.80;;
55186;SDS011;55457;52.002;5.464;2022-09-03T17:41:44;2.42;;;1.90;;
55186;SDS011;55457;52.002;5.464;2022-09-03T17:46:50;2.47;;;2.03;;
55186;SDS011;55457;52.002;5.464;2022-09-03T17:49:43;5.05;;;2.47;;
55186;SDS011;55457;52.002;5.464;2022-09-03T17:52:21;4.18;;;2.33;;
55186;SDS011;55457;52.002;5.464;2022-09-03T17:55:00;2.92;;;2.25;;
55186;SDS011;55457;52.002;5.464;2022-09-03T17:57:42;6.05;;;2.03;;
55186;SDS011;55457;52.002;5.464;2022-09-03T18:00:11;2.75;;;2.53;;
55186;SDS011;55457;52.002;5.464;2022-09-03T18:05:51;3.38;;;1.90;;
55186;SDS011;55457;52.002;5.464;2022-09-03T18:11:33;3.38;;;2.25;;
55186;SDS011;55457;52.002;5.464;2022-09-03T18:17:02;1.90;;;1.70;;
55186;SDS011;55457;52.002;5.464;2022-09-03T18:19:38;3.80;;;1.92;;
55186;SDS011;55457;52.002;5.464;2022-09-03T18:22:30;3.22;;;1.80;;
55186;SDS011;55457;52.002;5.464;2022-09-03T18:25:19;2.28;;;1.60;;
55186;SDS011;55457;52.002;5.464;2022-09-03T18:28:08;1.88;;;1.50;;
55186;SDS011;55457;52.002;5.464;2022-09-03T18:30:57;2.45;;;1.67;;
55186;SDS011;55457;52.002;5.464;2022-09-03T18:33:40;2.30;;;1.95;;
55186;SDS011;55457;52.002;5.464;2022-09-03T18:36:24;4.28;;;2.17;;
55186;SDS011;55457;52.002;5.464;2022-09-03T18:48:28;2.85;;;1.77;;
55186;SDS011;55457;52.002;5.464;2022-09-03T18:51:51;4.47;;;1.73;;
55186;SDS011;55457;52.002;5.464;2022-09-03T18:54:58;2.95;;;1.92;;
55186;SDS011;55457;52.002;5.464;2022-09-03T19:01:34;2.90;;;2.30;;
55186;SDS011;55457;52.002;5.464;2022-09-03T19:04:29;5.25;;;1.80;;
55186;SDS011;55457;52.002;5.464;2022-09-03T19:07:46;5.25;;;2.35;;
55186;SDS011;55457;52.002;5.464;2022-09-03T19:10:49;1.88;;;1.70;;
55186;SDS011;55457;52.002;5.464;2022-09-03T19:13:37;5.07;;;2.30;;
55186;SDS011;55457;52.002;5.464;2022-09-03T19:22:55;2.75;;;1.90;;
55186;SDS011;55457;52.002;5.464;2022-09-03T19:25:39;3.45;;;2.13;;
55186;SDS011;55457;52.002;5.464;2022-09-03T19:28:29;4.18;;;2.33;;
55186;SDS011;55457;52.002;5.464;2022-09-03T19:34:37;5.95;;;2.80;;
55186;SDS011;55457;52.002;5.464;2022-09-03T19:40:29;7.38;;;2.70;;
55186;SDS011;55457;52.002;5.464;2022-09-03T19:46:34;4.03;;;2.08;;
55186;SDS011;55457;52.002;5.464;2022-09-03T19:49:41;3.78;;;2.25;;
55186;SDS011;55457;52.002;5.464;2022-09-03T19:52:45;2.53;;;2.00;;
55186;SDS011;55457;52.002;5.464;2022-09-03T19:55:35;3.80;;;2.40;;
55186;SDS011;55457;52.002;5.464;2022-09-03T19:58:23;4.47;;;2.05;;
55186;SDS011;55457;52.002;5.464;2022-09-03T20:01:10;2.78;;;2.22;;
55186;SDS011;55457;52.002;5.464;2022-09-03T20:03:55;3.55;;;2.00;;
55186;SDS011;55457;52.002;5.464;2022-09-03T20:06:42;2.50;;;2.30;;
55186;SDS011;55457;52.002;5.464;2022-09-03T20:09:28;3.13;;;2.33;;
55186;SDS011;55457;52.002;5.464;2022-09-03T20:12:16;3.97;;;2.40;;
55186;SDS011;55457;52.002;5.464;2022-09-03T20:14:44;7.20;;;2.00;;
55186;SDS011;55457;52.002;5.464;2022-09-03T20:17:32;5.38;;;2.08;;
55186;SDS011;55457;52.002;5.464;2022-09-03T20:23:00;3.85;;;1.85;;
55186;SDS011;55457;52.002;5.464;2022-09-03T20:31:03;6.00;;;2.58;;
55186;SDS011;55457;52.002;5.464;2022-09-03T20:33:43;3.85;;;2.03;;
55186;SDS011;55457;52.002;5.464;2022-09-03T20:39:07;2.33;;;2.13;;
55186;SDS011;55457;52.002;5.464;2022-09-03T20:46:50;5.82;;;2.35;;
55186;SDS011;55457;52.002;5.464;2022-09-03T20:52:10;5.28;;;2.55;;
55186;SDS011;55457;52.002;5.464;2022-09-03T20:54:40;5.35;;;2.78;;
55186;SDS011;55457;52.002;5.464;2022-09-03T21:00:10;8.77;;;2.75;;
55186;SDS011;55457;52.002;5.464;2022-09-03T21:11:11;9.57;;;3.67;;
55186;SDS011;55457;52.002;5.464;2022-09-03T21:13:52;11.13;;;2.97;;
55186;SDS011;55457;52.002;5.464;2022-09-03T21:16:36;7.15;;;2.95;;
55186;SDS011;55457;52.002;5.464;2022-09-03T21:21:57;5.63;;;2.27;;
55186;SDS011;55457;52.002;5.464;2022-09-03T21:27:38;10.52;;;2.58;;
55186;SDS011;55457;52.002;5.464;2022-09-03T21:30:12;5.07;;;2.53;;
55186;SDS011;55457;52.002;5.464;2022-09-03T21:32:45;6.77;;;3.17;;
55186;SDS011;55457;52.002;5.464;2022-09-03T21:37:57;6.45;;;2.95;;
55186;SDS011;55457;52.002;5.464;2022-09-03T21:40:28;5.45;;;2.95;;